sensor_id;sensor_type;location;lat;lon;timestamp;temperature;humidity
16829;DHT22;8531;48.078;11.968;2022-11-20T00:00:36;5.60;99.90
16829;DHT22;8531;48.078;11.968;2022-11-20T00:03:02;5.60;99.90
16829;DHT22;8531;48.078;11.968;2022-11-20T00:05:28;5.50;99.90
16829;DHT22;8531;48.078;11.968;2022-11-20T00:07:53;5.50;99.90
16829;DHT22;8531;48.078;11.968;2022-11-20T00:10:19;5.50;99.90
16829;DHT22;8531;48.078;11.968;2022-11-20T00:12:45;5.50;99.90
16829;DHT22;8531;48.078;11.968;2022-11-20T00:15:10;5.50;99.90
16829;DHT22;8531;48.078;11.968;2022-11-20T00:17:36;5.50;99.90
16829;DHT22;8531;48.078;11.968;2022-11-20T00:20:02;5.60;99.90
16829;DHT22;8531;48.078;11.968;2022-11-20T00:22:28;5.60;99.90
16829;DHT22;8531;48.078;11.968;2022-11-20T00:24:53;5.60;99.90
16829;DHT22;8531;48.078;11.968;2022-11-20T00:27:19;5.60;99.90
16829;DHT22;8531;48.078;11.968;2022-11-20T00:29:45;5.60;99.90
16829;DHT22;8531;48.078;11.968;2022-11-20T00:32:10;5.60;99.90
16829;DHT22;8531;48.078;11.968;2022-11-20T00:34:36;5.60;99.90
16829;DHT22;8531;48.078;11.968;2022-11-20T00:37:02;5.50;99.90
16829;DHT22;8531;48.078;11.968;2022-11-20T00:39:27;5.60;99.90
16829;DHT22;8531;48.078;11.968;2022-11-20T00:41:53;5.60;99.90
16829;DHT22;8531;48.078;11.968;2022-11-20T00:44:19;5.60;99.90
16829;DHT22;8531;48.078;11.968;2022-11-20T00:46:44;5.60;99.90
16829;DHT22;8531;48.078;11.968;2022-11-20T00:49:10;5.60;99.90
16829;DHT22;8531;48.078;11.968;2022-11-20T00:51:35;5.70;99.90
16829;DHT22;8531;48.078;11.968;2022-11-20T00:54:01;5.70;99.90
16829;DHT22;8531;48.078;11.968;2022-11-20T00:56:27;5.70;99.90
16829;DHT22;8531;48.078;11.968;2022-11-20T00:58:53;5.70;99.90
16829;DHT22;8531;48.078;11.968;2022-11-20T01:01:21;5.70;99.90
16829;DHT22;8531;48.078;11.968;2022-11-20T01:03:50;5.80;99.90
16829;DHT22;8531;48.078;11.968;2022-11-20T01:06:37;5.80;99.90
16829;DHT22;8531;48.078;11.968;2022-11-20T01:09:09;5.80;99.90
16829;DHT22;8531;48.078;11.968;2022-11-20T01:11:39;5.80;99.90
16829;DHT22;8531;48.078;11.968;2022-11-20T01:14:09;5.80;99.90
16829;DHT22;8531;48.078;11.968;2022-11-20T01:16:38;5.70;99.90
16829;DHT22;8531;48.078;11.968;2022-11-20T01:19:06;5.80;99.90
16829;DHT22;8531;48.078;11.968;2022-11-20T01:21:37;5.80;99.90
16829;DHT22;8531;48.078;11.968;2022-11-20T01:24:04;5.80;99.90
16829;DHT22;8531;48.078;11.968;2022-11-20T01:26:33;5.80;99.90
16829;DHT22;8531;48.078;11.968;2022-11-20T01:29:00;5.80;99.90
16829;DHT22;8531;48.078;11.968;2022-11-20T01:31:34;5.80;99.90
16829;DHT22;8531;48.078;11.968;2022-11-20T01:34:10;5.80;99.90
16829;DHT22;8531;48.078;11.968;2022-11-20T01:36:36;5.80;99.90
16829;DHT22;8531;48.078;11.968;2022-11-20T01:39:07;5.90;99.90
16829;DHT22;8531;48.078;11.968;2022-11-20T01:41:35;5.80;99.90
16829;DHT22;8531;48.078;11.968;2022-11-20T01:44:22;5.80;99.90
16829;DHT22;8531;48.078;11.968;2022-11-20T01:46:57;5.70;99.90
16829;DHT22;8531;48.078;11.968;2022-11-20T01:49:41;5.80;99.90
16829;DHT22;8531;48.078;11.968;2022-11-20T01:52:17;5.80;99.90
16829;DHT22;8531;48.078;11.968;2022-11-20T01:55:01;5.80;99.90
16829;DHT22;8531;48.078;11.968;2022-11-20T01:57:29;5.80;99.90
16829;DHT22;8531;48.078;11.968;2022-11-20T02:00:09;5.70;99.90
16829;DHT22;8531;48.078;11.968;2022-11-20T02:02:37;5.70;99.90
16829;DHT22;8531;48.078;11.968;2022-11-20T02:05:14;5.70;99.90
16829;DHT22;8531;48.078;11.968;2022-11-20T02:07:42;5.70;99.90
16829;DHT22;8531;48.078;11.968;2022-11-20T02:10:08;5.80;99.90
16829;DHT22;8531;48.078;11.968;2022-11-20T02:12:34;5.80;99.90
16829;DHT22;8531;48.078;11.968;2022-11-20T02:15:23;5.80;99.90
16829;DHT22;8531;48.078;11.968;2022-11-20T02:17:49;5.80;99.90
16829;DHT22;8531;48.078;11.968;2022-11-20T02:20:14;5.70;99.90
16829;DHT22;8531;48.078;11.968;2022-11-20T02:23:14;5.70;99.90
16829;DHT22;8531;48.078;11.968;2022-11-20T02:25:42;5.70;99.90
16829;DHT22;8531;48.078;11.968;2022-11-20T02:28:09;5.70;99.90
16829;DHT22;8531;48.078;11.968;2022-11-20T02:30:35;5.80;99.90
16829;DHT22;8531;48.078;11.968;2022-11-20T02:33:01;5.70;99.90
16829;DHT22;8531;48.078;11.968;2022-11-20T02:37:58;5.70;99.90
16829;DHT22;8531;48.078;11.968;2022-11-20T02:40:24;5.70;99.90
16829;DHT22;8531;48.078;11.968;2022-11-20T02:42:54;5.70;99.90
16829;DHT22;8531;48.078;11.968;2022-11-20T02:45:20;5.80;99.90
16829;DHT22;8531;48.078;11.968;2022-11-20T02:47:46;5.70;99.90
16829;DHT22;8531;48.078;11.968;2022-11-20T02:50:12;5.70;99.90
16829;DHT22;8531;48.078;11.968;2022-11-20T02:52:37;5.70;99.90
16829;DHT22;8531;48.078;11.968;2022-11-20T02:55:03;5.80;99.90
16829;DHT22;8531;48.078;11.968;2022-11-20T02:57:29;5.70;99.90
16829;DHT22;8531;48.078;11.968;2022-11-20T02:59:55;5.70;99.90
16829;DHT22;8531;48.078;11.968;2022-11-20T03:02:21;5.70;99.90
16829;DHT22;8531;48.078;11.968;2022-11-20T03:04:47;5.70;99.90
16829;DHT22;8531;48.078;11.968;2022-11-20T03:07:13;5.70;99.90
16829;DHT22;8531;48.078;11.968;2022-11-20T03:09:38;5.60;99.90
16829;DHT22;8531;48.078;11.968;2022-11-20T03:12:04;5.60;99.90
16829;DHT22;8531;48.078;11.968;2022-11-20T03:14:30;5.60;99.90
16829;DHT22;8531;48.078;11.968;2022-11-20T03:16:56;5.60;99.90
16829;DHT22;8531;48.078;11.968;2022-11-20T03:19:22;5.50;99.90
16829;DHT22;8531;48.078;11.968;2022-11-20T03:21:48;5.50;99.90
16829;DHT22;8531;48.078;11.968;2022-11-20T03:24:14;5.50;99.90
16829;DHT22;8531;48.078;11.968;2022-11-20T03:26:40;5.60;99.90
16829;DHT22;8531;48.078;11.968;2022-11-20T03:29:06;5.60;99.90
16829;DHT22;8531;48.078;11.968;2022-11-20T03:31:34;5.60;99.90
16829;DHT22;8531;48.078;11.968;2022-11-20T03:34:01;5.60;99.90
16829;DHT22;8531;48.078;11.968;2022-11-20T03:36:28;5.60;99.90
16829;DHT22;8531;48.078;11.968;2022-11-20T03:38:55;5.60;99.90
16829;DHT22;8531;48.078;11.968;2022-11-20T03:41:25;5.60;99.90
16829;DHT22;8531;48.078;11.968;2022-11-20T03:43:56;5.70;99.90
16829;DHT22;8531;48.078;11.968;2022-11-20T03:46:22;5.70;99.90
16829;DHT22;8531;48.078;11.968;2022-11-20T03:48:49;5.60;99.90
16829;DHT22;8531;48.078;11.968;2022-11-20T03:51:17;5.60;99.90
16829;DHT22;8531;48.078;11.968;2022-11-20T03:53:45;5.60;99.90
16829;DHT22;8531;48.078;11.968;2022-11-20T03:56:12;5.60;99.90
16829;DHT22;8531;48.078;11.968;2022-11-20T03:58:39;5.60;99.90
16829;DHT22;8531;48.078;11.968;2022-11-20T04:01:11;5.60;99.90
16829;DHT22;8531;48.078;11.968;2022-11-20T04:03:38;5.70;99.90
16829;DHT22;8531;48.078;11.968;2022-11-20T04:06:10;5.70;99.90
16829;DHT22;8531;48.078;11.968;2022-11-20T04:08:36;5.70;99.90
16829;DHT22;8531;48.078;11.968;2022-11-20T04:13:36;5.70;99.90
16829;DHT22;8531;48.078;11.968;2022-11-20T04:16:02;5.70;99.90
16829;DHT22;8531;48.078;11.968;2022-11-20T04:18:28;5.60;99.90
16829;DHT22;8531;48.078;11.968;2022-11-20T04:20:53;5.60;99.90
16829;DHT22;8531;48.078;11.968;2022-11-20T04:23:19;5.70;99.90
16829;DHT22;8531;48.078;11.968;2022-11-20T04:25:44;5.70;99.90
16829;DHT22;8531;48.078;11.968;2022-11-20T04:28:10;5.70;99.90
16829;DHT22;8531;48.078;11.968;2022-11-20T04:30:36;5.70;99.90
16829;DHT22;8531;48.078;11.968;2022-11-20T04:33:01;5.60;99.90
16829;DHT22;8531;48.078;11.968;2022-11-20T04:35:27;5.60;99.90
16829;DHT22;8531;48.078;11.968;2022-11-20T04:37:53;5.60;99.90
16829;DHT22;8531;48.078;11.968;2022-11-20T04:40:18;5.60;99.90
16829;DHT22;8531;48.078;11.968;2022-11-20T04:42:44;5.60;99.90
16829;DHT22;8531;48.078;11.968;2022-11-20T04:45:10;5.50;99.90
16829;DHT22;8531;48.078;11.968;2022-11-20T04:47:35;5.50;99.90
16829;DHT22;8531;48.078;11.968;2022-11-20T04:50:02;5.50;99.90
16829;DHT22;8531;48.078;11.968;2022-11-20T04:52:27;5.60;99.90
16829;DHT22;8531;48.078;11.968;2022-11-20T04:54:53;5.60;99.90
16829;DHT22;8531;48.078;11.968;2022-11-20T04:57:19;5.60;99.90
16829;DHT22;8531;48.078;11.968;2022-11-20T04:59:44;5.60;99.90
16829;DHT22;8531;48.078;11.968;2022-11-20T05:02:10;5.60;99.90
16829;DHT22;8531;48.078;11.968;2022-11-20T05:04:36;5.60;99.90
16829;DHT22;8531;48.078;11.968;2022-11-20T05:07:02;5.50;99.90
16829;DHT22;8531;48.078;11.968;2022-11-20T05:09:28;5.50;99.90
16829;DHT22;8531;48.078;11.968;2022-11-20T05:11:53;5.50;99.90
16829;DHT22;8531;48.078;11.968;2022-11-20T05:14:19;5.50;99.90
16829;DHT22;8531;48.078;11.968;2022-11-20T05:16:45;5.50;99.90
16829;DHT22;8531;48.078;11.968;2022-11-20T05:19:10;5.60;99.90
16829;DHT22;8531;48.078;11.968;2022-11-20T05:21:36;5.50;99.90
16829;DHT22;8531;48.078;11.968;2022-11-20T05:24:01;5.50;99.90
16829;DHT22;8531;48.078;11.968;2022-11-20T05:26:27;5.60;99.90
16829;DHT22;8531;48.078;11.968;2022-11-20T05:28:53;5.50;99.90
16829;DHT22;8531;48.078;11.968;2022-11-20T05:31:24;5.60;99.90
16829;DHT22;8531;48.078;11.968;2022-11-20T05:33:50;5.50;99.90
16829;DHT22;8531;48.078;11.968;2022-11-20T05:36:16;5.50;99.90
16829;DHT22;8531;48.078;11.968;2022-11-20T05:38:43;5.50;99.90
16829;DHT22;8531;48.078;11.968;2022-11-20T05:41:13;5.50;99.90
16829;DHT22;8531;48.078;11.968;2022-11-20T05:43:41;5.50;99.90
16829;DHT22;8531;48.078;11.968;2022-11-20T05:46:09;5.50;99.90
16829;DHT22;8531;48.078;11.968;2022-11-20T05:48:35;5.50;99.90
16829;DHT22;8531;48.078;11.968;2022-11-20T05:51:03;5.50;99.90
16829;DHT22;8531;48.078;11.968;2022-11-20T05:53:29;5.50;99.90
16829;DHT22;8531;48.078;11.968;2022-11-20T05:55:59;5.50;99.90
16829;DHT22;8531;48.078;11.968;2022-11-20T05:58:24;5.50;99.90
16829;DHT22;8531;48.078;11.968;2022-11-20T06:00:50;5.50;99.90
16829;DHT22;8531;48.078;11.968;2022-11-20T06:03:16;5.50;99.90
16829;DHT22;8531;48.078;11.968;2022-11-20T06:05:42;5.50;99.90
16829;DHT22;8531;48.078;11.968;2022-11-20T06:08:07;5.50;99.90
16829;DHT22;8531;48.078;11.968;2022-11-20T06:10:33;5.50;99.90
16829;DHT22;8531;48.078;11.968;2022-11-20T06:12:58;5.50;99.90
16829;DHT22;8531;48.078;11.968;2022-11-20T06:15:24;5.50;99.90
16829;DHT22;8531;48.078;11.968;2022-11-20T06:17:54;5.50;99.90
16829;DHT22;8531;48.078;11.968;2022-11-20T06:20:21;5.50;99.90
16829;DHT22;8531;48.078;11.968;2022-11-20T06:22:46;5.50;99.90
16829;DHT22;8531;48.078;11.968;2022-11-20T06:25:12;5.50;99.90
16829;DHT22;8531;48.078;11.968;2022-11-20T06:27:38;5.50;99.90
16829;DHT22;8531;48.078;11.968;2022-11-20T06:30:04;5.50;99.90
16829;DHT22;8531;48.078;11.968;2022-11-20T06:32:30;5.50;99.90
16829;DHT22;8531;48.078;11.968;2022-11-20T06:34:56;5.50;99.90
16829;DHT22;8531;48.078;11.968;2022-11-20T06:37:21;5.50;99.90
16829;DHT22;8531;48.078;11.968;2022-11-20T06:39:47;5.50;99.90
16829;DHT22;8531;48.078;11.968;2022-11-20T06:42:13;5.50;99.90
16829;DHT22;8531;48.078;11.968;2022-11-20T06:44:38;5.50;99.90
16829;DHT22;8531;48.078;11.968;2022-11-20T06:47:04;5.50;99.90
16829;DHT22;8531;48.078;11.968;2022-11-20T06:49:30;5.60;99.90
16829;DHT22;8531;48.078;11.968;2022-11-20T06:51:55;5.50;99.90
16829;DHT22;8531;48.078;11.968;2022-11-20T06:54:21;5.50;99.90
16829;DHT22;8531;48.078;11.968;2022-11-20T06:56:47;5.50;99.90
16829;DHT22;8531;48.078;11.968;2022-11-20T06:59:13;5.50;99.90
16829;DHT22;8531;48.078;11.968;2022-11-20T07:01:39;5.50;99.90
16829;DHT22;8531;48.078;11.968;2022-11-20T07:04:04;5.40;99.90
16829;DHT22;8531;48.078;11.968;2022-11-20T07:06:31;5.40;99.90
16829;DHT22;8531;48.078;11.968;2022-11-20T07:08:56;5.30;99.90
16829;DHT22;8531;48.078;11.968;2022-11-20T07:11:22;5.30;99.90
16829;DHT22;8531;48.078;11.968;2022-11-20T07:13:48;5.30;99.90
16829;DHT22;8531;48.078;11.968;2022-11-20T07:16:15;5.20;99.90
16829;DHT22;8531;48.078;11.968;2022-11-20T07:18:40;5.20;99.90
16829;DHT22;8531;48.078;11.968;2022-11-20T07:21:08;5.20;99.90
16829;DHT22;8531;48.078;11.968;2022-11-20T07:23:34;5.30;99.90
16829;DHT22;8531;48.078;11.968;2022-11-20T07:26:05;5.20;99.90
16829;DHT22;8531;48.078;11.968;2022-11-20T07:28:31;5.20;99.90
16829;DHT22;8531;48.078;11.968;2022-11-20T07:30:56;5.20;99.90
16829;DHT22;8531;48.078;11.968;2022-11-20T07:33:22;5.20;99.90
16829;DHT22;8531;48.078;11.968;2022-11-20T07:35:48;5.20;99.90
16829;DHT22;8531;48.078;11.968;2022-11-20T07:38:13;5.20;99.90
16829;DHT22;8531;48.078;11.968;2022-11-20T07:40:39;5.20;99.90
16829;DHT22;8531;48.078;11.968;2022-11-20T07:43:05;5.20;99.90
16829;DHT22;8531;48.078;11.968;2022-11-20T07:45:30;5.20;99.90
16829;DHT22;8531;48.078;11.968;2022-11-20T07:47:56;5.20;99.90
16829;DHT22;8531;48.078;11.968;2022-11-20T07:50:22;5.20;99.90
16829;DHT22;8531;48.078;11.968;2022-11-20T07:52:48;5.20;99.90
16829;DHT22;8531;48.078;11.968;2022-11-20T07:55:14;5.40;99.90
16829;DHT22;8531;48.078;11.968;2022-11-20T07:57:40;5.40;99.90
16829;DHT22;8531;48.078;11.968;2022-11-20T08:00:07;5.50;99.90
16829;DHT22;8531;48.078;11.968;2022-11-20T08:02:38;5.60;99.90
16829;DHT22;8531;48.078;11.968;2022-11-20T08:05:05;5.70;99.90
16829;DHT22;8531;48.078;11.968;2022-11-20T08:07:38;5.80;99.90
16829;DHT22;8531;48.078;11.968;2022-11-20T08:10:05;5.80;99.90
16829;DHT22;8531;48.078;11.968;2022-11-20T08:12:31;5.80;99.90
16829;DHT22;8531;48.078;11.968;2022-11-20T08:15:15;5.80;99.90
16829;DHT22;8531;48.078;11.968;2022-11-20T08:17:41;5.90;99.90
16829;DHT22;8531;48.078;11.968;2022-11-20T08:20:07;5.90;99.90
16829;DHT22;8531;48.078;11.968;2022-11-20T08:22:34;5.90;99.90
16829;DHT22;8531;48.078;11.968;2022-11-20T08:24:59;6.00;99.90
16829;DHT22;8531;48.078;11.968;2022-11-20T08:27:25;6.00;99.90
16829;DHT22;8531;48.078;11.968;2022-11-20T08:29:51;6.00;99.90
16829;DHT22;8531;48.078;11.968;2022-11-20T08:32:16;6.00;99.90
16829;DHT22;8531;48.078;11.968;2022-11-20T08:34:42;6.10;99.90
16829;DHT22;8531;48.078;11.968;2022-11-20T08:37:08;6.10;99.90
16829;DHT22;8531;48.078;11.968;2022-11-20T08:39:33;6.10;99.90
16829;DHT22;8531;48.078;11.968;2022-11-20T08:41:59;6.10;99.90
16829;DHT22;8531;48.078;11.968;2022-11-20T08:44:25;6.10;99.90
16829;DHT22;8531;48.078;11.968;2022-11-20T08:46:50;6.10;99.90
16829;DHT22;8531;48.078;11.968;2022-11-20T08:49:16;6.10;99.90
16829;DHT22;8531;48.078;11.968;2022-11-20T08:51:43;6.20;99.90
16829;DHT22;8531;48.078;11.968;2022-11-20T08:54:09;6.20;99.90
16829;DHT22;8531;48.078;11.968;2022-11-20T08:56:34;6.20;99.90
16829;DHT22;8531;48.078;11.968;2022-11-20T08:59:00;6.20;99.90
16829;DHT22;8531;48.078;11.968;2022-11-20T09:01:27;6.20;99.90
16829;DHT22;8531;48.078;11.968;2022-11-20T09:03:55;6.30;99.90
16829;DHT22;8531;48.078;11.968;2022-11-20T09:06:22;6.30;99.90
16829;DHT22;8531;48.078;11.968;2022-11-20T09:08:54;6.30;99.90
16829;DHT22;8531;48.078;11.968;2022-11-20T09:11:20;6.30;99.90
16829;DHT22;8531;48.078;11.968;2022-11-20T09:13:46;6.40;99.90
16829;DHT22;8531;48.078;11.968;2022-11-20T09:16:12;6.40;99.90
16829;DHT22;8531;48.078;11.968;2022-11-20T09:18:38;6.30;99.90
16829;DHT22;8531;48.078;11.968;2022-11-20T09:21:06;6.40;99.90
16829;DHT22;8531;48.078;11.968;2022-11-20T09:23:34;6.40;99.90
16829;DHT22;8531;48.078;11.968;2022-11-20T09:26:11;6.50;99.90
16829;DHT22;8531;48.078;11.968;2022-11-20T09:28:37;6.50;99.90
16829;DHT22;8531;48.078;11.968;2022-11-20T09:31:08;6.60;99.90
16829;DHT22;8531;48.078;11.968;2022-11-20T09:33:35;6.70;99.90
16829;DHT22;8531;48.078;11.968;2022-11-20T09:36:00;6.70;99.90
16829;DHT22;8531;48.078;11.968;2022-11-20T09:38:26;6.60;99.90
16829;DHT22;8531;48.078;11.968;2022-11-20T09:41:03;6.60;99.90
16829;DHT22;8531;48.078;11.968;2022-11-20T09:43:55;6.50;99.90
16829;DHT22;8531;48.078;11.968;2022-11-20T09:52:13;6.70;99.90
16829;DHT22;8531;48.078;11.968;2022-11-20T09:54:43;6.60;99.90
16829;DHT22;8531;48.078;11.968;2022-11-20T09:57:12;6.70;99.90
16829;DHT22;8531;48.078;11.968;2022-11-20T09:59:57;6.70;99.90
16829;DHT22;8531;48.078;11.968;2022-11-20T10:02:34;6.70;99.90
16829;DHT22;8531;48.078;11.968;2022-11-20T10:05:19;6.70;99.90
16829;DHT22;8531;48.078;11.968;2022-11-20T10:08:17;6.70;99.90
16829;DHT22;8531;48.078;11.968;2022-11-20T10:29:41;7.30;99.90
16829;DHT22;8531;48.078;11.968;2022-11-20T10:32:15;7.30;99.90
16829;DHT22;8531;48.078;11.968;2022-11-20T10:37:22;7.40;99.90
16829;DHT22;8531;48.078;11.968;2022-11-20T10:39:58;7.40;99.90
16829;DHT22;8531;48.078;11.968;2022-11-20T10:42:40;7.40;99.90
16829;DHT22;8531;48.078;11.968;2022-11-20T10:48:41;7.50;99.90
16829;DHT22;8531;48.078;11.968;2022-11-20T10:59:11;7.60;99.90
16829;DHT22;8531;48.078;11.968;2022-11-20T11:01:42;7.70;99.90
16829;DHT22;8531;48.078;11.968;2022-11-20T11:04:40;7.70;99.90
16829;DHT22;8531;48.078;11.968;2022-11-20T11:07:40;7.70;99.90
16829;DHT22;8531;48.078;11.968;2022-11-20T11:12:58;7.80;99.90
16829;DHT22;8531;48.078;11.968;2022-11-20T11:15:38;8.00;99.90
16829;DHT22;8531;48.078;11.968;2022-11-20T11:18:04;8.10;99.90
16829;DHT22;8531;48.078;11.968;2022-11-20T11:20:30;8.10;99.90
16829;DHT22;8531;48.078;11.968;2022-11-20T11:22:58;8.10;99.90
16829;DHT22;8531;48.078;11.968;2022-11-20T11:25:32;8.20;99.90
16829;DHT22;8531;48.078;11.968;2022-11-20T11:28:20;8.10;99.90
16829;DHT22;8531;48.078;11.968;2022-11-20T11:30:46;8.10;99.90
16829;DHT22;8531;48.078;11.968;2022-11-20T11:33:22;8.10;99.90
16829;DHT22;8531;48.078;11.968;2022-11-20T11:35:54;8.10;99.90
16829;DHT22;8531;48.078;11.968;2022-11-20T11:38:35;8.10;99.90
16829;DHT22;8531;48.078;11.968;2022-11-20T11:41:03;8.00;99.90
16829;DHT22;8531;48.078;11.968;2022-11-20T11:43:32;8.00;99.90
16829;DHT22;8531;48.078;11.968;2022-11-20T11:51:36;8.00;99.90
16829;DHT22;8531;48.078;11.968;2022-11-20T11:54:16;8.00;99.90
16829;DHT22;8531;48.078;11.968;2022-11-20T11:56:43;8.00;99.90
16829;DHT22;8531;48.078;11.968;2022-11-20T11:59:15;7.90;99.90
16829;DHT22;8531;48.078;11.968;2022-11-20T12:01:53;7.90;99.90
16829;DHT22;8531;48.078;11.968;2022-11-20T12:04:46;7.90;99.90
16829;DHT22;8531;48.078;11.968;2022-11-20T12:07:22;7.90;99.90
16829;DHT22;8531;48.078;11.968;2022-11-20T12:09:54;7.90;99.90
16829;DHT22;8531;48.078;11.968;2022-11-20T12:12:29;8.00;99.90
16829;DHT22;8531;48.078;11.968;2022-11-20T12:14:57;7.90;99.90
16829;DHT22;8531;48.078;11.968;2022-11-20T12:17:24;8.00;99.90
16829;DHT22;8531;48.078;11.968;2022-11-20T12:19:49;8.00;99.90
16829;DHT22;8531;48.078;11.968;2022-11-20T12:27:41;8.10;99.90
16829;DHT22;8531;48.078;11.968;2022-11-20T12:30:17;8.10;99.90
16829;DHT22;8531;48.078;11.968;2022-11-20T12:35:47;8.20;99.90
16829;DHT22;8531;48.078;11.968;2022-11-20T12:50:17;8.20;99.90
16829;DHT22;8531;48.078;11.968;2022-11-20T12:52:53;8.10;99.90
16829;DHT22;8531;48.078;11.968;2022-11-20T12:55:33;8.10;99.90
16829;DHT22;8531;48.078;11.968;2022-11-20T13:06:33;7.50;99.90
16829;DHT22;8531;48.078;11.968;2022-11-20T13:08:59;7.40;99.90
16829;DHT22;8531;48.078;11.968;2022-11-20T13:18:06;7.20;99.90
16829;DHT22;8531;48.078;11.968;2022-11-20T13:20:34;7.20;99.90
16829;DHT22;8531;48.078;11.968;2022-11-20T13:23:00;7.20;99.90
16829;DHT22;8531;48.078;11.968;2022-11-20T13:25:30;7.20;99.90
16829;DHT22;8531;48.078;11.968;2022-11-20T13:27:58;7.20;99.90
16829;DHT22;8531;48.078;11.968;2022-11-20T13:30:25;7.20;99.90
16829;DHT22;8531;48.078;11.968;2022-11-20T13:32:57;7.20;99.90
16829;DHT22;8531;48.078;11.968;2022-11-20T13:35:31;7.20;99.90
16829;DHT22;8531;48.078;11.968;2022-11-20T13:38:07;7.20;99.90
16829;DHT22;8531;48.078;11.968;2022-11-20T13:40:36;7.20;99.90
16829;DHT22;8531;48.078;11.968;2022-11-20T13:43:51;7.20;99.90
16829;DHT22;8531;48.078;11.968;2022-11-20T13:45:59;7.10;99.90
16829;DHT22;8531;48.078;11.968;2022-11-20T13:48:31;7.10;99.90
16829;DHT22;8531;48.078;11.968;2022-11-20T13:57:00;6.90;99.90
16829;DHT22;8531;48.078;11.968;2022-11-20T14:02:18;6.80;99.90
16829;DHT22;8531;48.078;11.968;2022-11-20T14:04:47;6.70;99.90
16829;DHT22;8531;48.078;11.968;2022-11-20T14:07:14;6.60;99.90
16829;DHT22;8531;48.078;11.968;2022-11-20T14:09:52;6.60;99.90
16829;DHT22;8531;48.078;11.968;2022-11-20T14:12:21;6.60;99.90
16829;DHT22;8531;48.078;11.968;2022-11-20T14:14:51;6.60;99.90
16829;DHT22;8531;48.078;11.968;2022-11-20T14:17:30;6.60;99.90
16829;DHT22;8531;48.078;11.968;2022-11-20T14:20:11;6.70;99.90
16829;DHT22;8531;48.078;11.968;2022-11-20T14:22:38;6.60;99.90
16829;DHT22;8531;48.078;11.968;2022-11-20T14:25:30;6.70;99.90
16829;DHT22;8531;48.078;11.968;2022-11-20T14:28:03;6.60;99.90
16829;DHT22;8531;48.078;11.968;2022-11-20T14:30:44;6.60;99.90
16829;DHT22;8531;48.078;11.968;2022-11-20T14:33:12;6.60;99.90
16829;DHT22;8531;48.078;11.968;2022-11-20T14:35:50;6.70;99.90
16829;DHT22;8531;48.078;11.968;2022-11-20T14:38:20;6.70;99.90
16829;DHT22;8531;48.078;11.968;2022-11-20T14:40:46;6.60;99.90
16829;DHT22;8531;48.078;11.968;2022-11-20T14:43:27;6.70;99.90
16829;DHT22;8531;48.078;11.968;2022-11-20T14:46:03;6.70;99.90
16829;DHT22;8531;48.078;11.968;2022-11-20T14:48:43;6.70;99.90
16829;DHT22;8531;48.078;11.968;2022-11-20T14:51:11;6.70;99.90
16829;DHT22;8531;48.078;11.968;2022-11-20T14:53:37;6.70;99.90
16829;DHT22;8531;48.078;11.968;2022-11-20T14:56:03;6.70;99.90
16829;DHT22;8531;48.078;11.968;2022-11-20T14:58:33;6.70;99.90
16829;DHT22;8531;48.078;11.968;2022-11-20T15:01:01;6.60;99.90
16829;DHT22;8531;48.078;11.968;2022-11-20T15:03:37;6.70;99.90
16829;DHT22;8531;48.078;11.968;2022-11-20T15:06:03;6.60;99.90
16829;DHT22;8531;48.078;11.968;2022-11-20T15:08:30;6.60;99.90
16829;DHT22;8531;48.078;11.968;2022-11-20T15:10:56;6.60;99.90
16829;DHT22;8531;48.078;11.968;2022-11-20T15:13:26;6.60;99.90
16829;DHT22;8531;48.078;11.968;2022-11-20T15:15:56;6.70;99.90
16829;DHT22;8531;48.078;11.968;2022-11-20T15:20:48;6.60;99.90
16829;DHT22;8531;48.078;11.968;2022-11-20T15:23:17;6.60;99.90
16829;DHT22;8531;48.078;11.968;2022-11-20T15:25:46;6.60;99.90
16829;DHT22;8531;48.078;11.968;2022-11-20T15:28:38;6.60;99.90
16829;DHT22;8531;48.078;11.968;2022-11-20T15:31:05;6.60;99.90
16829;DHT22;8531;48.078;11.968;2022-11-20T15:33:32;6.50;99.90
16829;DHT22;8531;48.078;11.968;2022-11-20T15:35:58;6.50;99.90
16829;DHT22;8531;48.078;11.968;2022-11-20T15:38:24;6.50;99.90
16829;DHT22;8531;48.078;11.968;2022-11-20T15:40:50;6.50;99.90
16829;DHT22;8531;48.078;11.968;2022-11-20T15:43:15;6.50;99.90
16829;DHT22;8531;48.078;11.968;2022-11-20T15:45:51;6.50;99.90
16829;DHT22;8531;48.078;11.968;2022-11-20T15:48:21;6.50;99.90
16829;DHT22;8531;48.078;11.968;2022-11-20T15:53:23;6.50;99.90
16829;DHT22;8531;48.078;11.968;2022-11-20T15:55:49;6.50;99.90
16829;DHT22;8531;48.078;11.968;2022-11-20T15:58:15;6.50;99.90
16829;DHT22;8531;48.078;11.968;2022-11-20T16:00:42;6.50;99.90
16829;DHT22;8531;48.078;11.968;2022-11-20T16:03:12;6.50;99.90
16829;DHT22;8531;48.078;11.968;2022-11-20T16:05:37;6.50;99.90
16829;DHT22;8531;48.078;11.968;2022-11-20T16:08:03;6.50;99.90
16829;DHT22;8531;48.078;11.968;2022-11-20T16:10:29;6.50;99.90
16829;DHT22;8531;48.078;11.968;2022-11-20T16:12:55;6.50;99.90
16829;DHT22;8531;48.078;11.968;2022-11-20T16:15:39;6.50;99.90
16829;DHT22;8531;48.078;11.968;2022-11-20T16:18:11;6.40;99.90
16829;DHT22;8531;48.078;11.968;2022-11-20T16:20:37;6.40;99.90
16829;DHT22;8531;48.078;11.968;2022-11-20T16:23:04;6.40;99.90
16829;DHT22;8531;48.078;11.968;2022-11-20T16:25:30;6.40;99.90
16829;DHT22;8531;48.078;11.968;2022-11-20T16:27:55;6.30;99.90
16829;DHT22;8531;48.078;11.968;2022-11-20T16:30:21;6.30;99.90
16829;DHT22;8531;48.078;11.968;2022-11-20T16:32:47;6.20;99.90
16829;DHT22;8531;48.078;11.968;2022-11-20T16:35:13;6.20;99.90
16829;DHT22;8531;48.078;11.968;2022-11-20T16:37:39;6.20;99.90
16829;DHT22;8531;48.078;11.968;2022-11-20T16:40:05;6.20;99.90
16829;DHT22;8531;48.078;11.968;2022-11-20T16:42:35;6.20;99.90
16829;DHT22;8531;48.078;11.968;2022-11-20T16:45:01;6.20;99.90
16829;DHT22;8531;48.078;11.968;2022-11-20T16:47:27;6.20;99.90
16829;DHT22;8531;48.078;11.968;2022-11-20T16:49:53;6.20;99.90
16829;DHT22;8531;48.078;11.968;2022-11-20T16:52:19;6.10;99.90
16829;DHT22;8531;48.078;11.968;2022-11-20T16:54:44;6.10;99.90
16829;DHT22;8531;48.078;11.968;2022-11-20T16:57:10;6.10;99.90
16829;DHT22;8531;48.078;11.968;2022-11-20T16:59:35;6.10;99.90
16829;DHT22;8531;48.078;11.968;2022-11-20T17:02:02;6.10;99.90
16829;DHT22;8531;48.078;11.968;2022-11-20T17:04:28;6.10;99.90
16829;DHT22;8531;48.078;11.968;2022-11-20T17:06:54;6.10;99.90
16829;DHT22;8531;48.078;11.968;2022-11-20T17:09:19;6.10;99.90
16829;DHT22;8531;48.078;11.968;2022-11-20T17:11:45;6.00;99.90
16829;DHT22;8531;48.078;11.968;2022-11-20T17:14:12;6.00;99.90
16829;DHT22;8531;48.078;11.968;2022-11-20T17:16:38;6.00;99.90
16829;DHT22;8531;48.078;11.968;2022-11-20T17:19:04;6.00;99.90
16829;DHT22;8531;48.078;11.968;2022-11-20T17:21:31;5.90;99.90
16829;DHT22;8531;48.078;11.968;2022-11-20T17:24:02;5.90;99.90
16829;DHT22;8531;48.078;11.968;2022-11-20T17:26:29;5.90;99.90
16829;DHT22;8531;48.078;11.968;2022-11-20T17:28:57;5.80;99.90
16829;DHT22;8531;48.078;11.968;2022-11-20T17:31:25;5.80;99.90
16829;DHT22;8531;48.078;11.968;2022-11-20T17:33:51;5.80;99.90
16829;DHT22;8531;48.078;11.968;2022-11-20T17:36:18;5.70;99.90